Time;durP1;ratioP1;P1;durP2;ratioP2;P2;SDS_P1;SDS_P2;PMS_P1;PMS_P2;Temp;Humidity;BMP_temperature;BMP_pressure;BME280_temperature;BME280_humidity;BME280_pressure;Samples;Min_cycle;Max_cycle;Signal;HPM_P1;HPM_P2
2021/10/13 00:00:03;;;;;;;;;;;;;;;-142.75;100.00;78170.97;5057433;28;19917;-79
2021/10/13 00:02:28;;;;;;;;;;;;;;;-142.75;100.00;78165.06;5055583;28;19916;-79
2021/10/13 00:04:55;;;;;;;;;;;;;;;-142.75;100.00;78167.03;5074915;28;19923;-79
2021/10/13 00:07:20;;;;;;;;;;;;;;;-142.75;100.00;78174.91;5056978;28;19916;-79
2021/10/13 00:09:46;;;;;;;;;;;;;;;-142.75;100.00;78178.84;5057139;28;20366;-79
2021/10/13 00:12:11;;;;;;;;;;;;;;;-142.75;100.00;78198.56;5074647;28;19920;-79
2021/10/13 00:14:36;;;;;;;;;;;;;;;-142.75;100.00;78204.47;5056720;28;20003;-79
2021/10/13 00:17:05;;;;;;;;;;;;;;;-142.75;100.00;78220.22;5074655;28;19916;-79
2021/10/13 00:19:31;;;;;;;;;;;;;;;-142.75;100.00;78230.06;5074682;28;19977;-79
2021/10/13 00:21:56;;;;;;;;;;;;;;;-142.75;100.00;78232.03;5074682;28;19920;-79
2021/10/13 00:24:21;;;;;;;;;;;;;;;-142.75;100.00;78234.00;5056567;28;19916;-79
2021/10/13 00:26:46;;;;;;;;;;;;;;;-142.75;100.00;78247.78;5056450;28;20282;-79
2021/10/13 00:29:12;;;;;;;;;;;;;;;-142.75;100.00;78253.69;5056576;28;20443;-79
2021/10/13 00:31:37;;;;;;;;;;;;;;;-142.75;100.00;78263.53;5074382;28;19923;-79
2021/10/13 00:34:02;;;;;;;;;;;;;;;-142.75;100.00;78271.41;5056481;28;19928;-79
2021/10/13 00:36:27;;;;;;;;;;;;;;;-142.75;100.00;78285.19;5074490;28;19917;-79
2021/10/13 00:38:52;;;;;;;;;;;;;;;-142.75;100.00;78302.94;5074576;28;19916;-79
2021/10/13 00:41:17;;;;;;;;;;;;;;;-142.75;100.00;78316.72;5073689;28;20380;-78
2021/10/13 00:43:43;;;;;;;;;;;;;;;-142.75;100.00;78318.69;5056198;28;19955;-79
2021/10/13 00:46:08;;;;;;;;;;;;;;;-142.75;100.00;78320.66;5056497;28;20308;-79
2021/10/13 00:48:33;;;;;;;;;;;;;;;-142.75;100.00;78330.50;5056740;28;19924;-78
2021/10/13 00:50:59;;;;;;;;;;;;;;;-142.75;100.00;78306.88;5074396;28;20413;-79
2021/10/13 00:53:25;;;;;;;;;;;;;;;-142.75;100.00;78277.31;5056875;28;20554;-79
2021/10/13 00:55:52;;;;;;;;;;;;;;;-142.75;100.00;78267.47;5056170;28;20313;-79
2021/10/13 00:58:17;;;;;;;;;;;;;;;-142.75;100.00;78239.91;5056494;28;20381;-81
2021/10/13 01:00:44;;;;;;;;;;;;;;;-142.75;100.00;78230.06;5074232;28;20018;-79
2021/10/13 01:03:22;;;;;;;;;;;;;;;-142.75;100.00;78228.09;5074322;28;20367;-80
2021/10/13 01:05:53;;;;;;;;;;;;;;;-142.75;100.00;78228.09;5055730;28;19924;-79
2021/10/13 01:08:33;;;;;;;;;;;;;;;-142.75;100.00;78218.25;5074388;28;19965;-81
2021/10/13 01:10:58;;;;;;;;;;;;;;;-142.75;100.00;78220.22;5056174;28;19966;-79
2021/10/13 01:13:38;;;;;;;;;;;;;;;-142.75;100.00;78228.09;5073796;28;19928;-78
2021/10/13 01:16:26;;;;;;;;;;;;;;;-142.75;100.00;78232.03;5073982;28;19916;-79
2021/10/13 01:19:03;;;;;;;;;;;;;;;-142.75;100.00;78232.03;5054783;28;20022;-79
2021/10/13 01:21:29;;;;;;;;;;;;;;;-142.75;100.00;78235.97;5055787;28;19947;-78
2021/10/13 01:24:12;;;;;;;;;;;;;;;-142.75;100.00;78234.00;5073432;28;19917;-79
2021/10/13 01:26:56;;;;;;;;;;;;;;;-142.75;100.00;78230.06;5074141;28;19923;-80
2021/10/13 01:29:22;;;;;;;;;;;;;;;-142.75;100.00;78232.03;5055628;28;19920;-79
2021/10/13 01:31:53;;;;;;;;;;;;;;;-142.75;100.00;78235.97;5055656;28;20042;-79
2021/10/13 01:34:21;;;;;;;;;;;;;;;-142.75;100.00;78234.00;5073821;28;19935;-78
2021/10/13 01:36:51;;;;;;;;;;;;;;;-142.75;100.00;78232.03;5073501;28;19928;-79
2021/10/13 01:39:16;;;;;;;;;;;;;;;-142.75;100.00;78232.03;5055707;28;19928;-80
2021/10/13 01:41:43;;;;;;;;;;;;;;;-142.75;100.00;78230.06;5073613;28;20007;-78
2021/10/13 01:44:11;;;;;;;;;;;;;;;-142.75;100.00;78228.09;5073505;28;19928;-78
2021/10/13 01:46:37;;;;;;;;;;;;;;;-142.75;100.00;78259.59;5055802;28;20065;-79
2021/10/13 01:49:06;;;;;;;;;;;;;;;-142.75;100.00;78267.47;5073460;28;19961;-80
2021/10/13 01:51:31;;;;;;;;;;;;;;;-142.75;100.00;78287.16;5055471;28;20054;-79
2021/10/13 01:53:58;;;;;;;;;;;;;;;-142.75;100.00;78287.16;5072859;28;20009;-79
2021/10/13 01:56:24;;;;;;;;;;;;;;;-142.75;100.00;78291.09;5055279;28;19924;-78
2021/10/13 01:58:51;;;;;;;;;;;;;;;-142.75;100.00;78295.06;5055428;28;20306;-79
2021/10/13 02:01:18;;;;;;;;;;;;;;;-142.75;100.00;78295.06;5073461;28;19928;-80
2021/10/13 02:03:45;;;;;;;;;;;;;;;-142.75;100.00;78299.00;5073457;28;19916;-78
2021/10/13 02:06:11;;;;;;;;;;;;;;;-142.75;100.00;78306.88;5073033;28;20473;-78
2021/10/13 02:08:37;;;;;;;;;;;;;;;-142.75;100.00;78318.69;5055128;28;20027;-78
2021/10/13 02:11:03;;;;;;;;;;;;;;;-142.75;100.00;78300.97;5055154;28;19923;-80
2021/10/13 02:13:35;;;;;;;;;;;;;;;-142.75;100.00;78299.00;5055030;28;20007;-78
2021/10/13 02:16:01;;;;;;;;;;;;;;;-142.75;100.00;78287.16;5072441;28;19955;-78
2021/10/13 02:18:28;;;;;;;;;;;;;;;-142.75;100.00;78273.38;5054918;28;19921;-78
2021/10/13 02:20:56;;;;;;;;;;;;;;;-142.75;100.00;78263.53;5054956;28;19973;-78
2021/10/13 02:23:24;;;;;;;;;;;;;;;-142.75;100.00;78255.66;5054855;28;19916;-79
2021/10/13 02:25:49;;;;;;;;;;;;;;;-142.75;100.00;78251.72;5054434;28;19916;-78
2021/10/13 02:28:19;;;;;;;;;;;;;;;-142.75;100.00;78239.91;5073129;28;20354;-78
2021/10/13 02:30:45;;;;;;;;;;;;;;;-142.75;100.00;78237.94;5071890;28;19924;-77
2021/10/13 02:33:10;;;;;;;;;;;;;;;-142.75;100.00;78237.94;5081894;22;20301;-80
2021/10/13 02:35:35;;;;;;;;;;;;;;;-142.75;100.00;78243.84;5053288;28;19920;-81
2021/10/13 02:38:01;;;;;;;;;;;;;;;-142.75;100.00;78235.97;5036817;28;19924;-80
2021/10/13 02:40:26;;;;;;;;;;;;;;;-142.75;100.00;78239.91;5054496;28;20362;-80
2021/10/13 02:42:52;;;;;;;;;;;;;;;-142.75;100.00;78228.09;5049610;28;19917;-80
2021/10/13 02:45:18;;;;;;;;;;;;;;;-142.75;100.00;78228.09;5021618;28;19923;-82
2021/10/13 02:47:50;;;;;;;;;;;;;;;-142.75;100.00;78234.00;5032887;28;19917;-82
2021/10/13 02:50:24;;;;;;;;;;;;;;;-142.75;100.00;78232.03;5046196;28;19952;-82
2021/10/13 02:52:50;;;;;;;;;;;;;;;-142.75;100.00;78232.03;5016572;28;19917;-82
2021/10/13 02:55:19;;;;;;;;;;;;;;;-142.75;100.00;78241.88;5034411;28;20546;-80
2021/10/13 02:57:59;;;;;;;;;;;;;;;-142.75;100.00;78239.91;5034797;28;20024;-83
2021/10/13 03:00:26;;;;;;;;;;;;;;;-142.75;100.00;78239.91;5025757;28;19924;-82
2021/10/13 03:03:00;;;;;;;;;;;;;;;-142.75;100.00;78239.91;5047058;28;19917;-81
2021/10/13 03:05:26;;;;;;;;;;;;;;;-142.75;100.00;78224.16;5024968;28;20361;-81
2021/10/13 03:07:52;;;;;;;;;;;;;;;-142.75;100.00;78228.09;5045482;28;19955;-81
2021/10/13 03:10:17;;;;;;;;;;;;;;;-142.75;100.00;78234.00;5038614;28;19917;-81
2021/10/13 03:12:49;;;;;;;;;;;;;;;-142.75;100.00;78232.03;5028571;28;19924;-81
2021/10/13 03:15:14;;;;;;;;;;;;;;;-142.75;100.00;78224.16;5039246;28;19920;-81
2021/10/13 03:17:41;;;;;;;;;;;;;;;-142.75;100.00;78235.97;5037164;28;19999;-81
2021/10/13 03:20:06;;;;;;;;;;;;;;;-142.75;100.00;78245.81;5045969;28;19917;-81
2021/10/13 03:22:33;;;;;;;;;;;;;;;-142.75;100.00;78239.91;5027477;28;19917;-82
2021/10/13 03:24:58;;;;;;;;;;;;;;;-142.75;100.00;78239.91;5033652;28;19939;-81
2021/10/13 03:27:27;;;;;;;;;;;;;;;-142.75;100.00;78251.72;5035896;28;19917;-81
2021/10/13 03:29:52;;;;;;;;;;;;;;;-142.75;100.00;78247.78;5034832;28;19924;-83
2021/10/13 03:32:18;;;;;;;;;;;;;;;-142.75;100.00;78243.84;5036335;28;19932;-83
2021/10/13 03:34:44;;;;;;;;;;;;;;;-142.75;100.00;78239.91;5020653;28;19971;-82
2021/10/13 03:37:09;;;;;;;;;;;;;;;-142.75;100.00;78249.75;5049326;28;19916;-83
2021/10/13 03:39:34;;;;;;;;;;;;;;;-142.75;100.00;78253.69;5041572;28;19917;-81
2021/10/13 03:42:01;;;;;;;;;;;;;;;-142.75;100.00;78259.59;5043619;28;20003;-81
2021/10/13 03:44:26;;;;;;;;;;;;;;;-142.75;100.00;78275.34;5037528;28;20295;-82
2021/10/13 03:46:51;;;;;;;;;;;;;;;-142.75;100.00;78279.28;5018724;28;19917;-84
2021/10/13 03:49:16;;;;;;;;;;;;;;;-142.75;100.00;78275.34;5040792;28;19924;-82
2021/10/13 03:51:41;;;;;;;;;;;;;;;-142.75;100.00;78283.22;5045787;28;20059;-82
2021/10/13 03:54:07;;;;;;;;;;;;;;;-142.75;100.00;78295.06;5047494;28;19917;-81
2021/10/13 03:56:32;;;;;;;;;;;;;;;-142.75;100.00;78302.94;5047017;28;19990;-81
2021/10/13 03:58:58;;;;;;;;;;;;;;;-142.75;100.00;78304.91;5042523;28;20349;-81
2021/10/13 04:01:23;;;;;;;;;;;;;;;-142.75;100.00;78302.94;5039845;28;19955;-83
2021/10/13 04:03:48;;;;;;;;;;;;;;;-142.75;100.00;78302.94;5033605;28;19983;-80
2021/10/13 04:06:13;;;;;;;;;;;;;;;-142.75;100.00;78310.81;5020178;28;19917;-82
2021/10/13 04:08:38;;;;;;;;;;;;;;;-142.75;100.00;78314.75;5042339;28;20438;-82
2021/10/13 04:11:04;;;;;;;;;;;;;;;-142.75;100.00;78312.78;5048948;28;19920;-81
2021/10/13 04:13:29;;;;;;;;;;;;;;;-142.75;100.00;78312.78;5041102;28;19917;-82
2021/10/13 04:15:54;;;;;;;;;;;;;;;-142.75;100.00;78318.69;5052596;28;20063;-82
2021/10/13 04:18:20;;;;;;;;;;;;;;;-142.75;100.00;78312.78;5028661;28;19971;-82
2021/10/13 04:20:45;;;;;;;;;;;;;;;-142.75;100.00;78302.94;5038660;28;20012;-81
2021/10/13 04:23:10;;;;;;;;;;;;;;;-142.75;100.00;78289.13;5025150;28;19921;-80
2021/10/13 04:25:35;;;;;;;;;;;;;;;-142.75;100.00;78300.97;5041832;28;19921;-80
2021/10/13 04:28:00;;;;;;;;;;;;;;;-142.75;100.00;78302.94;5019381;28;20306;-81
2021/10/13 04:30:26;;;;;;;;;;;;;;;-142.75;100.00;78300.97;5017739;28;19963;-81
2021/10/13 04:32:51;;;;;;;;;;;;;;;-142.75;100.00;78291.09;5042283;28;19916;-80
2021/10/13 04:35:16;;;;;;;;;;;;;;;-142.75;100.00;78287.16;5026245;28;19924;-81
2021/10/13 04:37:41;;;;;;;;;;;;;;;-142.75;100.00;78279.28;5051128;28;19976;-81
2021/10/13 04:40:07;;;;;;;;;;;;;;;-142.75;100.00;78277.31;5027979;28;19924;-80
2021/10/13 04:42:32;;;;;;;;;;;;;;;-142.75;100.00;78281.25;5026251;28;19917;-80
2021/10/13 04:44:58;;;;;;;;;;;;;;;-142.75;100.00;78279.28;5045871;28;20008;-81
2021/10/13 04:47:23;;;;;;;;;;;;;;;-142.75;100.00;78287.16;5026779;28;19960;-81
2021/10/13 04:49:48;;;;;;;;;;;;;;;-142.75;100.00;78275.34;5052252;28;19925;-81
2021/10/13 04:52:13;;;;;;;;;;;;;;;-142.75;100.00;78281.25;5048677;28;19921;-80
2021/10/13 04:54:38;;;;;;;;;;;;;;;-142.75;100.00;78295.06;5045358;28;19963;-80
2021/10/13 04:57:04;;;;;;;;;;;;;;;-142.75;100.00;78295.06;5050964;28;19917;-81
2021/10/13 04:59:29;;;;;;;;;;;;;;;-142.75;100.00;78308.84;5027542;28;19955;-81
2021/10/13 05:01:54;;;;;;;;;;;;;;;-142.75;100.00;78310.81;5026843;28;19924;-82
2021/10/13 05:04:19;;;;;;;;;;;;;;;-142.75;100.00;78316.72;5048664;28;19920;-81
2021/10/13 05:06:45;;;;;;;;;;;;;;;-142.75;100.00;78326.56;5046344;28;20028;-82
2021/10/13 05:09:10;;;;;;;;;;;;;;;-142.75;100.00;78334.44;5024514;28;19953;-82
2021/10/13 05:11:35;;;;;;;;;;;;;;;-142.75;100.00;78340.34;5044739;28;19928;-80
2021/10/13 05:14:01;;;;;;;;;;;;;;;-142.75;100.00;78346.25;5024951;28;19917;-80
2021/10/13 05:16:26;;;;;;;;;;;;;;;-142.75;100.00;78358.06;5024884;28;19917;-81
2021/10/13 05:18:51;;;;;;;;;;;;;;;-142.75;100.00;78381.69;5048302;28;19970;-81
2021/10/13 05:21:16;;;;;;;;;;;;;;;-142.75;100.00;78385.63;5038840;28;19924;-81
2021/10/13 05:23:42;;;;;;;;;;;;;;;-142.75;100.00;78385.63;5032481;28;19947;-81
2021/10/13 05:26:07;;;;;;;;;;;;;;;-142.75;100.00;78389.56;5048590;28;19943;-79
2021/10/13 05:28:32;;;;;;;;;;;;;;;-142.75;100.00;78387.59;5052952;28;19974;-82
2021/10/13 05:30:57;;;;;;;;;;;;;;;-142.75;100.00;78381.69;5028472;28;19928;-81
2021/10/13 05:33:22;;;;;;;;;;;;;;;-142.75;100.00;78363.97;5033517;28;19924;-82
2021/10/13 05:35:47;;;;;;;;;;;;;;;-142.75;100.00;78367.91;5029231;28;20039;-80
2021/10/13 05:38:13;;;;;;;;;;;;;;;-142.75;100.00;78362.00;5048688;28;20302;-82
2021/10/13 05:40:38;;;;;;;;;;;;;;;-142.75;100.00;78360.03;5036388;28;19917;-79
2021/10/13 05:43:03;;;;;;;;;;;;;;;-142.75;100.00;78350.19;5031253;28;19917;-82
2021/10/13 05:45:28;;;;;;;;;;;;;;;-142.75;100.00;78363.97;5022126;28;19917;-80
2021/10/13 05:47:53;;;;;;;;;;;;;;;-142.75;100.00;78358.06;5051517;28;19921;-82
2021/10/13 05:50:19;;;;;;;;;;;;;;;-142.75;100.00;78365.94;5041205;28;19951;-80
2021/10/13 05:52:44;;;;;;;;;;;;;;;-142.75;100.00;78365.94;5047933;28;19946;-80
2021/10/13 05:55:09;;;;;;;;;;;;;;;-142.75;100.00;78363.97;5053113;28;19921;-80
2021/10/13 05:57:35;;;;;;;;;;;;;;;-142.75;100.00;78365.94;5021106;28;19917;-82
2021/10/13 06:00:02;;;;;;;;;;;;;;;-142.75;100.00;78350.19;5030320;28;19925;-81
2021/10/13 06:02:28;;;;;;;;;;;;;;;-142.75;100.00;78358.06;5040135;28;19917;-82
2021/10/13 06:04:53;;;;;;;;;;;;;;;-142.75;100.00;78350.19;5021435;28;19976;-81
2021/10/13 06:07:18;;;;;;;;;;;;;;;-142.75;100.00;78334.44;5044218;28;19917;-82
2021/10/13 06:09:44;;;;;;;;;;;;;;;-142.75;100.00;78336.41;5047087;28;19917;-81
2021/10/13 06:12:10;;;;;;;;;;;;;;;-142.75;100.00;78330.50;5023444;28;19928;-81
2021/10/13 06:14:35;;;;;;;;;;;;;;;-142.75;100.00;78332.47;5027989;28;20282;-80
2021/10/13 06:17:00;;;;;;;;;;;;;;;-142.75;100.00;78326.56;5027932;28;19921;-79
2021/10/13 06:19:25;;;;;;;;;;;;;;;-142.75;100.00;78326.56;5050564;28;19971;-80
2021/10/13 06:21:51;;;;;;;;;;;;;;;-142.75;100.00;78330.50;5033099;28;19917;-78
2021/10/13 06:24:16;;;;;;;;;;;;;;;-142.75;100.00;78334.44;5031461;28;19917;-80
2021/10/13 06:26:41;;;;;;;;;;;;;;;-142.75;100.00;78336.41;5028889;28;20015;-80
2021/10/13 06:29:06;;;;;;;;;;;;;;;-142.75;100.00;78324.59;5045570;28;20007;-82
2021/10/13 06:31:31;;;;;;;;;;;;;;;-142.75;100.00;78320.66;5048432;28;19928;-80
2021/10/13 06:33:57;;;;;;;;;;;;;;;-142.75;100.00;78324.59;5031517;28;19939;-79
2021/10/13 06:36:22;;;;;;;;;;;;;;;-142.75;100.00;78312.78;5031804;28;19917;-81
2021/10/13 06:38:48;;;;;;;;;;;;;;;-142.75;100.00;78318.69;5050285;28;19923;-82
2021/10/13 06:41:13;;;;;;;;;;;;;;;-142.75;100.00;78314.75;5045799;28;20309;-81
2021/10/13 06:43:38;;;;;;;;;;;;;;;-142.75;100.00;78310.81;5033475;28;20334;-79
2021/10/13 06:46:04;;;;;;;;;;;;;;;-142.75;100.00;78310.81;5046433;28;19917;-79
2021/10/13 06:48:29;;;;;;;;;;;;;;;-142.75;100.00;78302.94;5051386;28;19925;-79
2021/10/13 06:50:55;;;;;;;;;;;;;;;-142.75;100.00;78289.13;5027434;28;20020;-79
2021/10/13 06:53:20;;;;;;;;;;;;;;;-142.75;100.00;78291.09;5045580;28;19921;-80
2021/10/13 06:55:45;;;;;;;;;;;;;;;-142.75;100.00;78295.06;5056076;28;19978;-79
2021/10/13 06:58:11;;;;;;;;;;;;;;;-142.75;100.00;78295.06;5056444;28;19916;-80
2021/10/13 07:00:36;;;;;;;;;;;;;;;-142.75;100.00;78287.16;5049507;28;19916;-77
2021/10/13 07:03:02;;;;;;;;;;;;;;;-142.75;100.00;78275.34;5045233;28;19924;-80
2021/10/13 07:05:27;;;;;;;;;;;;;;;-142.75;100.00;78275.34;5047647;28;19967;-79
2021/10/13 07:07:52;;;;;;;;;;;;;;;-142.75;100.00;78253.69;5031287;28;19916;-79
2021/10/13 07:10:18;;;;;;;;;;;;;;;-142.75;100.00;78243.84;5028884;28;19943;-81
2021/10/13 07:12:43;;;;;;;;;;;;;;;-142.75;100.00;78228.09;5043771;28;19921;-80
2021/10/13 07:15:09;;;;;;;;;;;;;;;-142.75;100.00;78161.13;5034388;28;19916;-79
2021/10/13 07:17:35;;;;;;;;;;;;;;;-142.75;100.00;78100.09;5049644;28;19921;-79
2021/10/13 07:20:01;;;;;;;;;;;;;;;-142.75;100.00;78023.28;5042764;28;19921;-80
2021/10/13 07:22:27;;;;;;;;;;;;;;;-142.75;100.00;77899.22;5024167;28;19921;-79
2021/10/13 07:24:52;;;;;;;;;;;;;;;-142.75;100.00;77787.00;5047000;28;19944;-79
2021/10/13 07:27:17;;;;;;;;;;;;;;;-142.75;100.00;77655.06;5016521;28;19917;-79
2021/10/13 07:29:45;;;;;;;;;;;;;;;-142.75;100.00;77564.50;5027681;28;19924;-80
2021/10/13 07:32:10;;;;;;;;;;;;;;;-142.75;100.00;77556.63;5052017;28;19925;-79
2021/10/13 07:34:35;;;;;;;;;;;;;;;-142.75;94.15;77605.84;5048944;28;19951;-81
2021/10/13 07:37:02;;;;;;;;;;;;;;;-142.75;95.10;77678.69;5033110;28;19921;-81
2021/10/13 07:39:27;;;;;;;;;;;;;;;-142.75;96.79;77723.97;5016988;28;19925;-80
2021/10/13 07:41:52;;;;;;;;;;;;;;;-142.75;99.16;77771.25;5040464;28;19925;-80
2021/10/13 07:44:17;;;;;;;;;;;;;;;-142.75;100.00;77818.50;5039567;28;19924;-79
2021/10/13 07:46:42;;;;;;;;;;;;;;;-142.75;100.00;77853.94;5029418;28;20019;-80
2021/10/13 07:49:07;;;;;;;;;;;;;;;-142.75;100.00;77885.44;5037861;28;19925;-79
2021/10/13 07:51:33;;;;;;;;;;;;;;;-142.75;100.00;77907.09;5016835;28;20429;-79
2021/10/13 07:53:58;;;;;;;;;;;;;;;-142.75;100.00;77909.06;5042715;28;19960;-82
2021/10/13 07:56:23;;;;;;;;;;;;;;;-142.75;100.00;77913.03;5036749;28;20405;-79
2021/10/13 07:58:49;;;;;;;;;;;;;;;-142.75;100.00;77926.81;5047687;28;19920;-81
2021/10/13 08:01:14;;;;;;;;;;;;;;;-142.75;100.00;77920.91;5018396;28;20407;-79
2021/10/13 08:03:40;;;;;;;;;;;;;;;-142.75;100.00;77928.78;5017703;28;19918;-79
2021/10/13 08:06:06;;;;;;;;;;;;;;;-142.75;100.00;77920.91;5047671;28;19916;-79
2021/10/13 08:08:31;;;;;;;;;;;;;;;-142.75;100.00;77918.94;5018979;28;19972;-78
2021/10/13 08:10:56;;;;;;;;;;;;;;;-142.75;100.00;77915.00;5024170;28;19921;-80
2021/10/13 08:13:21;;;;;;;;;;;;;;;-142.75;100.00;77907.09;5021248;28;19921;-80
2021/10/13 08:15:46;;;;;;;;;;;;;;;-142.75;100.00;77885.44;5034992;28;19925;-79
2021/10/13 08:18:12;;;;;;;;;;;;;;;-142.75;100.00;77834.25;5049501;28;19940;-79
2021/10/13 08:20:37;;;;;;;;;;;;;;;-142.75;100.00;77783.06;5043507;28;19917;-78
2021/10/13 08:23:02;;;;;;;;;;;;;;;-142.75;100.00;77737.78;5046777;28;19917;-79
2021/10/13 08:25:27;;;;;;;;;;;;;;;-142.75;100.00;77727.94;5035683;28;19917;-79
2021/10/13 08:27:52;;;;;;;;;;;;;;;-142.75;100.00;77727.94;5035767;28;19924;-81
2021/10/13 08:30:18;;;;;;;;;;;;;;;-142.75;98.30;77739.75;5055127;28;20382;-79
2021/10/13 08:32:43;;;;;;;;;;;;;;;-142.75;99.67;77751.56;5027963;28;19921;-79
2021/10/13 08:35:08;;;;;;;;;;;;;;;-142.75;97.54;77783.06;5050929;28;19923;-78
2021/10/13 08:37:34;;;;;;;;;;;;;;;-142.75;98.23;77802.75;5049739;28;19917;-79
2021/10/13 08:39:59;;;;;;;;;;;;;;;-142.75;99.68;77798.81;5025943;28;20298;-78
2021/10/13 08:42:25;;;;;;;;;;;;;;;-142.75;99.86;77816.53;5031013;28;20303;-78
2021/10/13 08:44:52;;;;;;;;;;;;;;;-142.75;100.00;77830.31;5068762;23;20417;-78
2021/10/13 08:47:17;;;;;;;;;;;;;;;-142.75;100.00;77816.53;5053122;28;19932;-78
2021/10/13 08:49:43;;;;;;;;;;;;;;;-142.75;100.00;77816.53;5053934;28;20318;-78
2021/10/13 08:52:09;;;;;;;;;;;;;;;-142.75;100.00;77814.56;5053901;28;19994;-77
2021/10/13 08:54:34;;;;;;;;;;;;;;;-142.75;100.00;77820.47;5053885;28;19932;-77
2021/10/13 08:56:59;;;;;;;;;;;;;;;-142.75;100.00;77830.31;5053870;28;19916;-77
2021/10/13 08:59:44;;;;;;;;;;;;;;;-142.75;100.00;77826.38;5054101;28;19924;-77
2021/10/13 09:02:09;;;;;;;;;;;;;;;-142.75;100.00;77820.47;5035152;28;19916;-77
2021/10/13 09:04:35;;;;;;;;;;;;;;;-142.75;100.00;77822.44;5053520;28;20294;-78
2021/10/13 09:07:03;;;;;;;;;;;;;;;-142.75;100.00;77844.09;5053820;28;19928;-77
2021/10/13 09:09:29;;;;;;;;;;;;;;;-142.75;100.00;77840.16;5036102;28;20007;-76
2021/10/13 09:11:54;;;;;;;;;;;;;;;-142.75;100.00;77846.06;5053624;28;20015;-77
2021/10/13 09:14:21;;;;;;;;;;;;;;;-142.75;100.00;77842.13;5053725;28;19923;-78
2021/10/13 09:16:47;;;;;;;;;;;;;;;-142.75;100.00;77832.28;5035740;28;20392;-77
2021/10/13 09:19:12;;;;;;;;;;;;;;;-142.75;100.00;77832.28;5035567;28;20010;-77
2021/10/13 09:21:44;;;;;;;;;;;;;;;-142.75;100.00;77834.25;5053945;28;20342;-77
2021/10/13 09:24:10;;;;;;;;;;;;;;;-142.75;100.00;77850.00;5035001;28;19923;-77
2021/10/13 09:26:35;;;;;;;;;;;;;;;-142.75;100.00;77861.81;5053724;28;19917;-77
2021/10/13 09:29:00;;;;;;;;;;;;;;;-142.75;100.00;77867.72;5053288;28;19917;-78
2021/10/13 09:31:28;;;;;;;;;;;;;;;-142.75;100.00;77853.94;5053156;28;19925;-78
2021/10/13 09:33:55;;;;;;;;;;;;;;;-142.75;99.09;77855.91;5052720;28;20015;-78
2021/10/13 09:36:20;;;;;;;;;;;;;;;-142.75;97.95;77840.16;5035393;28;20026;-78
2021/10/13 09:38:45;;;;;;;;;;;;;;;-142.75;95.44;77846.06;5035010;28;20020;-77
2021/10/13 09:41:11;;;;;;;;;;;;;;;-142.75;94.62;77857.88;5035490;28;19916;-78
2021/10/13 09:43:37;;;;;;;;;;;;;;;-142.75;99.25;77838.19;5052822;28;19921;-77
2021/10/13 09:46:04;;;;;;;;;;;;;;;-142.75;100.00;77861.81;5052813;28;20337;-78
2021/10/13 09:48:29;;;;;;;;;;;;;;;-142.75;100.00;77855.91;5052681;28;19924;-77
2021/10/13 09:50:54;;;;;;;;;;;;;;;-142.75;100.00;77855.91;5035496;28;19920;-78
2021/10/13 09:53:21;;;;;;;;;;;;;;;-142.75;100.00;77861.81;5052978;28;19929;-78
2021/10/13 09:55:46;;;;;;;;;;;;;;;-142.75;100.00;77853.94;5052636;28;19916;-78
2021/10/13 09:58:22;;;;;;;;;;;;;;;-142.75;100.00;77859.84;5052830;28;19935;-78
2021/10/13 10:00:47;;;;;;;;;;;;;;;-142.75;100.00;77859.84;5051513;28;20425;-78
2021/10/13 10:03:13;;;;;;;;;;;;;;;-142.75;100.00;77838.19;5034763;28;19933;-78
2021/10/13 10:05:41;;;;;;;;;;;;;;;-142.75;100.00;77824.41;5051882;28;19917;-78
2021/10/13 10:08:07;;;;;;;;;;;;;;;-142.75;98.78;77806.69;5052698;28;19960;-78
2021/10/13 10:10:33;;;;;;;;;;;;;;;-142.75;96.31;77777.16;5034860;28;19927;-78
2021/10/13 10:12:59;;;;;;;;;;;;;;;-142.75;93.37;77743.69;5052574;28;19931;-78
2021/10/13 10:15:28;;;;;;;;;;;;;;;-142.75;90.94;77698.38;5051208;28;19916;-78
2021/10/13 10:17:53;;;;;;;;;;;;;;;-142.75;90.33;77684.59;5034760;28;20366;-78
2021/10/13 10:20:37;;;;;;;;;;;;;;;-142.75;89.87;77670.81;5034553;28;19970;-77
2021/10/13 10:23:22;;;;;;;;;;;;;;;-142.75;89.29;77704.28;5034683;28;19996;-78
2021/10/13 10:25:48;;;;;;;;;;;;;;;-142.75;89.69;77714.13;5051316;28;19921;-78
2021/10/13 10:28:31;;;;;;;;;;;;;;;-142.75;90.65;77737.78;5052437;28;19924;-78
2021/10/13 10:31:15;;;;;;;;;;;;;;;-142.75;89.08;77755.50;5052607;28;20807;-77
2021/10/13 10:33:47;;;;;;;;;;;;;;;-142.75;88.82;77747.63;5051999;28;19917;-78
2021/10/13 10:36:13;;;;;;;;;;;;;;;-142.75;91.27;77716.09;5052327;28;19917;-78
2021/10/13 10:38:50;;;;;;;;;;;;;;;-142.75;90.53;77672.78;5052484;28;20000;-77
2021/10/13 10:41:15;;;;;;;;;;;;;;;-142.75;97.07;77507.41;5052273;28;19924;-78
2021/10/13 10:43:40;;;;;;;;;;;;;;;-142.75;93.07;77286.88;5051786;28;20336;-78
2021/10/13 10:46:05;;;;;;;;;;;;;;;-142.75;81.64;77099.84;5051863;28;19959;-78
2021/10/13 10:48:44;;;;;;;;;;;;;;;-142.75;65.03;77060.47;5034084;28;19917;-78
2021/10/13 10:51:09;;;;;;;;;;;;;;;-142.75;62.36;77103.78;5052166;28;19967;-77
2021/10/13 10:53:36;;;;;;;;;;;;;;;-142.75;63.07;77149.06;5051799;28;19920;-77
2021/10/13 10:56:18;;;;;;;;;;;;;;;-142.75;66.44;77184.50;5052173;28;20075;-78
2021/10/13 10:58:44;;;;;;;;;;;;;;;-142.75;69.89;77135.28;5033772;28;19966;-78
2021/10/13 11:01:13;;;;;;;;;;;;;;;-142.75;66.80;77143.16;5052317;28;20348;-78
2021/10/13 11:03:39;;;;;;;;;;;;;;;-142.75;63.97;77237.66;5052269;28;19923;-78
2021/10/13 11:06:26;;;;;;;;;;;;;;;-142.75;65.20;77306.56;5051402;28;19917;-78
2021/10/13 11:09:05;;;;;;;;;;;;;;;-142.75;67.48;77377.44;5034534;28;20413;-78
2021/10/13 11:11:39;;;;;;;;;;;;;;;-142.75;70.92;77446.34;5052123;28;19921;-78
2021/10/13 11:14:12;;;;;;;;;;;;;;;-142.75;72.72;77491.66;5033592;28;19959;-77
2021/10/13 11:16:39;;;;;;;;;;;;;;;-142.75;71.20;77501.50;5052100;28;20444;-78
2021/10/13 11:19:05;;;;;;;;;;;;;;;-142.75;73.09;77529.06;5052061;28;19924;-78
2021/10/13 11:21:30;;;;;;;;;;;;;;;-142.75;68.95;77574.34;5033975;28;19921;-78
2021/10/13 11:23:57;;;;;;;;;;;;;;;-142.75;71.97;77586.16;5051127;28;19970;-77
2021/10/13 11:26:26;;;;;;;;;;;;;;;-142.75;72.33;77609.78;5035683;28;19917;-77
2021/10/13 11:28:51;;;;;;;;;;;;;;;-142.75;73.91;77540.88;5037793;28;20364;-78
2021/10/13 11:31:16;;;;;;;;;;;;;;;-142.75;67.76;77357.75;5038012;28;19925;-78
2021/10/13 11:33:42;;;;;;;;;;;;;;;-142.75;65.03;77251.44;5055615;28;19928;-77
2021/10/13 11:36:08;;;;;;;;;;;;;;;-142.75;61.71;77294.75;5055148;28;20505;-77
2021/10/13 11:38:34;;;;;;;;;;;;;;;-142.75;63.36;77401.06;5037518;28;19921;-78
2021/10/13 11:41:07;;;;;;;;;;;;;;;-142.75;65.62;77505.44;5055350;28;19917;-77
2021/10/13 11:43:33;;;;;;;;;;;;;;;-142.75;68.60;77607.81;5054990;28;19920;-77
2021/10/13 11:45:58;;;;;;;;;;;;;;;-142.75;70.58;77666.88;5036984;28;19925;-77
2021/10/13 11:48:27;;;;;;;;;;;;;;;-142.75;70.98;77723.97;5054749;28;19917;-77
2021/10/13 11:50:53;;;;;;;;;;;;;;;-142.75;72.99;77702.31;5055028;28;20011;-77
2021/10/13 11:53:18;;;;;;;;;;;;;;;-142.75;72.00;77643.25;5055175;28;20393;-77
2021/10/13 11:55:44;;;;;;;;;;;;;;;-142.75;70.11;77601.91;5054569;28;20015;-77
2021/10/13 11:58:09;;;;;;;;;;;;;;;-142.75;69.81;77550.72;5054700;28;19962;-77
2021/10/13 12:00:35;;;;;;;;;;;;;;;-142.75;67.79;77546.78;5037034;28;20022;-77
2021/10/13 12:03:08;;;;;;;;;;;;;;;-142.75;66.49;77568.44;5036599;28;20286;-77
2021/10/13 12:05:40;;;;;;;;;;;;;;;-142.75;68.73;77592.06;5053945;28;19956;-77
2021/10/13 12:08:09;;;;;;;;;;;;;;;-142.75;68.37;77619.63;5037028;28;19916;-78
2021/10/13 12:10:37;;;;;;;;;;;;;;;-142.75;68.61;77664.91;5036568;28;19917;-77
2021/10/13 12:13:03;;;;;;;;;;;;;;;-142.75;71.29;77688.53;5036164;28;19928;-77
2021/10/13 12:15:29;;;;;;;;;;;;;;;-142.75;70.24;77731.88;5054208;28;19923;-78
2021/10/13 12:18:14;;;;;;;;;;;;;;;-142.75;70.27;77757.47;5054242;28;19917;-77